createdAt,value
2023-04-03T00:00:38.145Z,6.32
2023-04-03T00:03:05.458Z,6.20
2023-04-03T00:05:32.388Z,6.80
2023-04-03T00:07:59.413Z,6.22
2023-04-03T00:10:26.540Z,6.80
2023-04-03T00:12:53.587Z,6.75
2023-04-03T00:15:21.709Z,6.05
2023-04-03T00:17:48.995Z,6.25
2023-04-03T00:20:16.402Z,6.32
2023-04-03T00:22:43.328Z,5.78
2023-04-03T00:25:10.555Z,7.03
2023-04-03T00:27:38.982Z,6.50
2023-04-03T00:30:07.860Z,6.05
2023-04-03T00:32:35.115Z,6.20
2023-04-03T00:35:02.911Z,5.82
2023-04-03T00:37:30.051Z,6.15
2023-04-03T00:39:57.745Z,5.28
2023-04-03T00:42:25.015Z,6.15
2023-04-03T00:44:58.111Z,6.00
2023-04-03T00:47:26.384Z,5.93
2023-04-03T00:49:54.418Z,6.15
2023-04-03T00:52:29.018Z,5.75
2023-04-03T00:55:01.448Z,5.35
2023-04-03T00:57:29.058Z,5.95
2023-04-03T01:00:02.332Z,5.97
2023-04-03T01:02:29.406Z,5.15
2023-04-03T01:04:56.352Z,6.10
2023-04-03T01:07:28.197Z,5.82
2023-04-03T01:09:59.531Z,5.55
2023-04-03T01:12:30.406Z,5.93
2023-04-03T01:15:00.647Z,5.75
2023-04-03T01:17:35.765Z,5.90
2023-04-03T01:20:24.517Z,5.32
2023-04-03T01:23:09.870Z,5.20
2023-04-03T01:25:40.618Z,5.28
2023-04-03T01:28:10.157Z,5.35
2023-04-03T01:30:54.078Z,5.18
2023-04-03T01:33:21.624Z,5.22
2023-04-03T01:35:48.789Z,5.32
2023-04-03T01:38:16.086Z,5.03
2023-04-03T01:40:43.329Z,5.15
2023-04-03T01:43:11.027Z,5.00
2023-04-03T01:45:38.063Z,4.47
2023-04-03T01:48:05.611Z,4.80
2023-04-03T01:50:32.517Z,5.38
2023-04-03T01:52:59.599Z,5.32
2023-04-03T01:55:26.958Z,5.00
2023-04-03T01:57:54.003Z,4.47
2023-04-03T02:00:21.147Z,5.13
2023-04-03T02:02:48.081Z,5.00
2023-04-03T02:05:15.545Z,4.82
2023-04-03T02:07:42.458Z,4.55
2023-04-03T02:10:11.590Z,4.10
2023-04-03T02:12:38.560Z,4.72
2023-04-03T02:15:06.216Z,4.50
2023-04-03T02:17:33.221Z,4.30
2023-04-03T02:20:00.333Z,4.63
2023-04-03T02:22:27.311Z,4.70
2023-04-03T02:24:54.304Z,4.85
2023-04-03T02:27:21.438Z,4.95
2023-04-03T02:29:49.298Z,4.68
2023-04-03T02:32:16.315Z,4.40
2023-04-03T02:34:44.161Z,4.45
2023-04-03T02:37:13.420Z,4.55
2023-04-03T02:39:41.156Z,4.18
2023-04-03T02:42:08.526Z,4.72
2023-04-03T02:44:36.681Z,4.75
2023-04-03T02:47:03.930Z,4.75
2023-04-03T02:49:31.040Z,4.70
2023-04-03T02:51:58.179Z,4.70
2023-04-03T02:54:28.782Z,4.60
2023-04-03T02:56:58.983Z,4.75
2023-04-03T02:59:26.064Z,4.28
2023-04-03T03:01:53.728Z,4.50
2023-04-03T03:04:20.821Z,4.80
2023-04-03T03:06:48.138Z,4.47
2023-04-03T03:09:15.692Z,4.78
2023-04-03T03:11:43.493Z,4.18
2023-04-03T03:14:11.109Z,4.05
2023-04-03T03:16:38.069Z,4.22
2023-04-03T03:19:05.011Z,5.05
2023-04-03T03:21:32.141Z,4.50
2023-04-03T03:23:59.098Z,4.93
2023-04-03T03:26:28.232Z,4.40
2023-04-03T03:28:55.801Z,4.40
2023-04-03T03:31:22.945Z,4.40
2023-04-03T03:33:50.055Z,4.00
2023-04-03T03:36:17.185Z,4.13
2023-04-03T03:38:44.455Z,4.38
2023-04-03T03:41:11.732Z,4.65
2023-04-03T03:43:39.654Z,4.80
2023-04-03T03:46:08.212Z,4.65
2023-04-03T03:48:35.371Z,5.07
2023-04-03T03:51:02.448Z,4.28
2023-04-03T03:53:33.547Z,4.88
2023-04-03T03:56:05.874Z,4.57
2023-04-03T03:58:35.997Z,4.65
2023-04-03T04:01:04.670Z,4.50
2023-04-03T04:03:32.151Z,4.85
2023-04-03T04:05:59.275Z,4.93
2023-04-03T04:08:26.391Z,4.25
2023-04-03T04:10:53.920Z,4.57
2023-04-03T04:13:20.918Z,4.57
2023-04-03T04:15:47.966Z,4.30
2023-04-03T04:18:16.894Z,4.85
2023-04-03T04:20:47.230Z,5.07
2023-04-03T04:23:16.357Z,4.68
2023-04-03T04:25:46.445Z,4.85
2023-04-03T04:28:14.143Z,4.80
2023-04-03T04:30:41.853Z,4.65
2023-04-03T04:33:09.625Z,4.47
2023-04-03T04:35:37.360Z,4.38
2023-04-03T04:38:04.989Z,4.38
2023-04-03T04:40:32.071Z,4.70
2023-04-03T04:43:00.374Z,4.20
2023-04-03T04:45:27.583Z,4.13
2023-04-03T04:47:57.239Z,4.28
2023-04-03T04:50:27.946Z,4.22
2023-04-03T04:52:56.175Z,4.45
2023-04-03T04:55:23.279Z,4.60
2023-04-03T04:57:51.192Z,5.22
2023-04-03T05:00:18.721Z,4.55
2023-04-03T05:02:45.936Z,4.85
2023-04-03T05:05:13.693Z,5.15
2023-04-03T05:07:41.460Z,4.25
2023-04-03T05:10:09.526Z,4.30
2023-04-03T05:12:37.193Z,4.70
2023-04-03T05:15:06.333Z,4.07
2023-04-03T05:17:34.093Z,4.53
2023-04-03T05:20:01.639Z,5.15
2023-04-03T05:22:29.491Z,5.65
2023-04-03T05:25:01.914Z,6.03
2023-04-03T05:27:29.343Z,5.50
2023-04-03T05:29:58.830Z,4.78
2023-04-03T05:32:28.664Z,5.30
2023-04-03T05:35:22.053Z,5.07
2023-04-03T05:37:52.371Z,5.57
2023-04-03T05:40:19.728Z,5.72
2023-04-03T05:42:49.753Z,5.30
2023-04-03T05:45:19.222Z,5.78
2023-04-03T05:47:46.840Z,5.65
2023-04-03T05:50:13.929Z,5.20
2023-04-03T05:52:44.926Z,5.28
2023-04-03T05:55:12.324Z,5.85
2023-04-03T05:57:40.203Z,5.72
2023-04-03T06:00:10.504Z,5.38
2023-04-03T06:02:47.769Z,5.35
2023-04-03T06:05:19.845Z,5.78
2023-04-03T06:07:47.126Z,5.72
2023-04-03T06:10:14.266Z,5.65
2023-04-03T06:12:41.345Z,5.32
2023-04-03T06:15:11.076Z,5.82
2023-04-03T06:17:38.824Z,5.60
2023-04-03T06:20:06.611Z,6.32
2023-04-03T06:22:34.415Z,6.57
2023-04-03T06:25:02.523Z,5.40
2023-04-03T06:27:29.735Z,6.38
2023-04-03T06:29:56.678Z,5.50
2023-04-03T06:32:23.631Z,6.28
2023-04-03T06:34:50.564Z,5.97
2023-04-03T06:37:23.723Z,6.50
2023-04-03T06:39:51.316Z,6.47
2023-04-03T06:42:18.292Z,6.10
2023-04-03T06:45:08.892Z,5.80
2023-04-03T06:47:35.893Z,6.22
2023-04-03T06:50:03.233Z,5.72
2023-04-03T06:52:30.202Z,5.70
2023-04-03T06:55:00.381Z,6.22
2023-04-03T06:57:27.576Z,6.55
2023-04-03T06:59:54.535Z,5.72
2023-04-03T07:02:22.038Z,5.85
2023-04-03T07:04:49.170Z,6.20
2023-04-03T07:07:16.696Z,6.32
2023-04-03T07:09:45.236Z,6.30
2023-04-03T07:12:12.328Z,6.22
2023-04-03T07:14:39.363Z,5.35
2023-04-03T07:17:06.516Z,6.20
2023-04-03T07:19:33.511Z,5.70
2023-04-03T07:22:00.826Z,6.70
2023-04-03T07:24:27.858Z,5.88
2023-04-03T07:26:55.129Z,5.53
2023-04-03T07:29:22.593Z,6.15
2023-04-03T07:31:50.385Z,5.65
2023-04-03T07:34:17.425Z,5.88
2023-04-03T07:36:44.399Z,6.18
2023-04-03T07:39:12.167Z,5.68
2023-04-03T07:41:39.488Z,5.80
2023-04-03T07:44:06.729Z,5.30
2023-04-03T07:46:33.745Z,5.55
2023-04-03T07:49:00.778Z,6.03
2023-04-03T07:51:29.215Z,5.57
2023-04-03T07:53:56.509Z,5.93
2023-04-03T07:56:23.892Z,5.93
2023-04-03T07:58:51.239Z,5.78
2023-04-03T08:01:18.141Z,5.25
2023-04-03T08:03:45.304Z,5.13
2023-04-03T08:06:16.201Z,5.43
2023-04-03T08:08:44.329Z,5.57
2023-04-03T08:11:11.812Z,4.60
2023-04-03T08:13:39.740Z,5.38
2023-04-03T08:16:17.634Z,4.57
2023-04-03T08:18:45.393Z,5.05
2023-04-03T08:21:13.448Z,4.30
2023-04-03T08:23:42.612Z,4.63
2023-04-03T08:26:12.625Z,4.70
2023-04-03T08:28:40.671Z,3.88
2023-04-03T08:31:12.033Z,4.35
2023-04-03T08:33:40.516Z,4.25
2023-04-03T08:36:16.684Z,4.20
2023-04-03T08:38:43.674Z,3.88
2023-04-03T08:41:19.380Z,3.63
2023-04-03T08:43:54.643Z,4.15
2023-04-03T08:46:27.060Z,3.70
2023-04-03T08:48:55.739Z,4.47
2023-04-03T08:51:24.617Z,4.00
2023-04-03T08:54:00.028Z,3.33
2023-04-03T08:56:27.860Z,3.10
2023-04-03T08:59:01.752Z,4.00
2023-04-03T09:01:41.021Z,3.85
2023-04-03T09:04:14.989Z,3.90
2023-04-03T09:06:47.293Z,3.05
2023-04-03T09:09:16.454Z,5.00
2023-04-03T09:12:01.819Z,3.85
2023-04-03T09:14:44.103Z,4.30
2023-04-03T09:17:15.887Z,3.40
2023-04-03T09:19:52.219Z,3.85
2023-04-03T09:22:27.898Z,3.50
2023-04-03T09:25:09.765Z,3.15
2023-04-03T09:27:36.827Z,3.28
2023-04-03T09:30:04.831Z,3.20
2023-04-03T09:32:34.617Z,2.97
2023-04-03T09:35:27.344Z,3.55
2023-04-03T09:38:22.440Z,3.22
2023-04-03T09:41:03.728Z,3.13
2023-04-03T09:43:32.985Z,2.33
2023-04-03T09:46:32.319Z,2.90
2023-04-03T09:49:08.728Z,2.50
2023-04-03T09:51:37.480Z,2.70
2023-04-03T09:54:31.227Z,2.63
2023-04-03T09:57:07.310Z,2.92
2023-04-03T09:59:34.896Z,2.50
2023-04-03T10:02:19.786Z,2.40
2023-04-03T10:04:48.907Z,2.53
2023-04-03T10:07:31.772Z,2.80
2023-04-03T10:10:02.521Z,2.70
2023-04-03T10:12:29.769Z,2.17
2023-04-03T10:14:59.439Z,2.50
2023-04-03T10:17:48.890Z,2.55
2023-04-03T10:20:34.563Z,2.70
2023-04-03T10:23:34.184Z,2.70
2023-04-03T10:26:07.140Z,2.90
2023-04-03T10:28:46.263Z,2.47
2023-04-03T10:31:24.902Z,2.15
2023-04-03T10:34:03.301Z,2.22
2023-04-03T10:36:42.158Z,2.60
2023-04-03T10:39:20.729Z,2.42
2023-04-03T10:42:25.137Z,2.10
2023-04-03T10:45:19.845Z,1.90
2023-04-03T10:48:19.926Z,2.15
2023-04-03T10:50:57.145Z,2.20
2023-04-03T10:53:35.385Z,2.50
2023-04-03T10:56:08.058Z,2.33
2023-04-03T10:58:40.891Z,1.92
2023-04-03T11:01:13.178Z,2.50
2023-04-03T11:03:48.480Z,2.28
2023-04-03T11:06:18.208Z,1.95
2023-04-03T11:08:58.759Z,1.98
2023-04-03T11:11:28.940Z,2.33
2023-04-03T11:14:23.889Z,2.25
2023-04-03T11:17:12.313Z,2.03
2023-04-03T11:20:02.604Z,2.03
2023-04-03T11:22:32.767Z,2.20
2023-04-03T11:25:11.771Z,2.53
2023-04-03T11:27:48.208Z,2.15
2023-04-03T11:30:21.946Z,2.20
2023-04-03T11:33:19.321Z,2.22
2023-04-03T11:35:49.395Z,2.20
2023-04-03T11:38:24.404Z,2.40
2023-04-03T11:40:52.220Z,1.85
2023-04-03T11:43:31.528Z,2.00
2023-04-03T11:46:07.270Z,2.13
2023-04-03T11:48:37.181Z,2.05
2023-04-03T11:51:21.659Z,2.05
2023-04-03T11:53:49.560Z,1.42
2023-04-03T11:56:25.890Z,2.00
2023-04-03T11:59:11.623Z,1.70
2023-04-03T12:01:55.906Z,1.83
2023-04-03T12:04:26.403Z,1.95
2023-04-03T12:07:20.064Z,1.98
2023-04-03T12:09:47.779Z,2.03
2023-04-03T12:12:40.485Z,1.88
2023-04-03T12:15:19.355Z,1.77
2023-04-03T12:17:46.484Z,1.73
2023-04-03T12:20:51.837Z,1.80
2023-04-03T12:23:58.261Z,2.10
2023-04-03T12:26:52.214Z,1.63
2023-04-03T12:29:34.457Z,1.75
2023-04-03T12:32:32.377Z,1.95
2023-04-03T12:35:14.338Z,2.20
2023-04-03T12:37:44.812Z,2.05
2023-04-03T12:40:22.090Z,1.50
2023-04-03T12:43:05.402Z,2.42
2023-04-03T12:45:41.723Z,2.13
2023-04-03T12:48:17.430Z,2.05
2023-04-03T12:50:48.129Z,2.20
2023-04-03T12:53:23.867Z,2.30
2023-04-03T12:55:58.277Z,2.50
2023-04-03T12:58:28.095Z,2.33
2023-04-03T13:01:04.099Z,1.90
2023-04-03T13:03:32.014Z,2.17
2023-04-03T13:06:02.895Z,2.20
2023-04-03T13:08:29.904Z,2.05
2023-04-03T13:11:11.821Z,2.15
2023-04-03T13:13:40.420Z,1.92
2023-04-03T13:16:12.681Z,1.83
2023-04-03T13:18:39.773Z,1.98
2023-04-03T13:21:18.019Z,1.50
2023-04-03T13:23:51.501Z,1.80
2023-04-03T13:26:22.575Z,2.92
2023-04-03T13:28:52.452Z,2.13
2023-04-03T13:31:27.316Z,1.90
2023-04-03T13:34:06.810Z,1.77
2023-04-03T13:36:44.019Z,1.60
2023-04-03T13:39:16.789Z,1.58
2023-04-03T13:41:46.323Z,1.50
2023-04-03T13:44:22.422Z,1.60
2023-04-03T13:46:57.156Z,1.65
2023-04-03T13:49:37.463Z,1.75
2023-04-03T13:52:28.623Z,1.80
2023-04-03T13:55:26.007Z,1.80
2023-04-03T13:57:55.791Z,1.85
2023-04-03T14:00:34.991Z,1.70
2023-04-03T14:03:02.307Z,1.70
2023-04-03T14:05:29.298Z,2.38
2023-04-03T14:07:56.424Z,2.22
2023-04-03T14:10:23.793Z,1.67
2023-04-03T14:12:52.110Z,1.70
2023-04-03T14:15:27.540Z,2.20
2023-04-03T14:17:56.496Z,2.10
2023-04-03T14:20:27.610Z,2.22
2023-04-03T14:22:55.131Z,2.13
2023-04-03T14:25:24.800Z,2.50
2023-04-03T14:27:53.120Z,2.50
2023-04-03T14:30:30.811Z,1.85
2023-04-03T14:32:58.675Z,2.20
2023-04-03T14:35:26.657Z,1.80
2023-04-03T14:37:55.038Z,2.22
2023-04-03T14:40:26.786Z,2.20
2023-04-03T14:42:56.253Z,1.80
2023-04-03T14:45:24.814Z,1.70
2023-04-03T14:47:54.471Z,2.53
2023-04-03T14:50:26.857Z,1.75
2023-04-03T14:52:56.933Z,2.10
2023-04-03T14:55:25.511Z,1.73
2023-04-03T14:57:53.160Z,1.70
2023-04-03T15:00:22.020Z,1.75
2023-04-03T15:02:49.801Z,1.63
2023-04-03T15:05:17.732Z,1.88
2023-04-03T15:07:53.495Z,2.08
2023-04-03T15:10:28.620Z,2.10
2023-04-03T15:12:56.705Z,2.55
2023-04-03T15:15:25.149Z,2.50
2023-04-03T15:17:55.311Z,1.85
2023-04-03T15:20:25.870Z,1.95
2023-04-03T15:22:53.316Z,1.52
2023-04-03T15:25:20.338Z,1.98
2023-04-03T15:27:47.289Z,1.95
2023-04-03T15:30:19.483Z,2.00
2023-04-03T15:32:46.913Z,1.83
2023-04-03T15:35:14.178Z,1.80
2023-04-03T15:37:41.969Z,2.20
2023-04-03T15:40:10.538Z,1.90
2023-04-03T15:42:38.372Z,2.10
2023-04-03T15:45:05.843Z,1.90
2023-04-03T15:47:32.896Z,2.10
2023-04-03T15:50:02.417Z,2.70
2023-04-03T15:52:29.390Z,2.20
2023-04-03T15:54:56.432Z,2.03
2023-04-03T15:57:27.127Z,2.20
2023-04-03T15:59:55.150Z,2.17
2023-04-03T16:02:22.422Z,2.42
2023-04-03T16:04:50.401Z,2.28
2023-04-03T16:07:17.443Z,1.88
2023-04-03T16:09:44.410Z,2.33
2023-04-03T16:12:11.393Z,1.85
2023-04-03T16:14:38.339Z,2.00
2023-04-03T16:17:05.287Z,2.78
2023-04-03T16:19:32.351Z,2.30
2023-04-03T16:21:59.396Z,2.10
2023-04-03T16:24:26.523Z,2.05
2023-04-03T16:26:54.504Z,2.33
2023-04-03T16:29:21.520Z,2.30
2023-04-03T16:31:49.033Z,2.30
2023-04-03T16:34:16.960Z,2.20
2023-04-03T16:36:44.110Z,2.15
2023-04-03T16:39:11.148Z,1.90
2023-04-03T16:41:38.894Z,2.10
2023-04-03T16:44:08.123Z,2.03
2023-04-03T16:46:35.445Z,2.53
2023-04-03T16:49:02.598Z,2.13
2023-04-03T16:51:29.967Z,2.40
2023-04-03T16:53:57.108Z,1.98
2023-04-03T16:56:24.388Z,2.17
2023-04-03T16:58:51.378Z,1.98
2023-04-03T17:01:20.091Z,2.55
2023-04-03T17:03:47.463Z,2.40
2023-04-03T17:06:19.216Z,2.03
2023-04-03T17:08:50.660Z,2.28
2023-04-03T17:11:28.641Z,1.92
2023-04-03T17:13:55.830Z,1.90
2023-04-03T17:16:23.569Z,2.40
2023-04-03T17:18:50.777Z,2.25
2023-04-03T17:21:18.338Z,2.10
2023-04-03T17:23:49.875Z,2.05
2023-04-03T17:26:17.096Z,1.88
2023-04-03T17:28:45.552Z,2.03
2023-04-03T17:31:13.673Z,2.63
2023-04-03T17:33:40.652Z,2.00
2023-04-03T17:36:08.121Z,1.92
2023-04-03T17:38:35.671Z,2.10
2023-04-03T17:41:06.881Z,2.55
2023-04-03T17:43:34.653Z,1.98
2023-04-03T17:46:10.503Z,1.90
2023-04-03T17:48:39.986Z,2.08
2023-04-03T17:51:12.071Z,2.47
2023-04-03T17:53:39.893Z,2.05
2023-04-03T17:56:12.531Z,2.20
2023-04-03T17:58:41.029Z,1.88
2023-04-03T18:01:17.022Z,2.30
2023-04-03T18:03:45.239Z,1.73
2023-04-03T18:06:18.493Z,1.95
2023-04-03T18:08:52.603Z,2.80
2023-04-03T18:11:22.191Z,2.03
2023-04-03T18:13:49.428Z,2.08
2023-04-03T18:16:16.597Z,2.00
2023-04-03T18:18:43.756Z,2.20
2023-04-03T18:21:13.517Z,2.00
2023-04-03T18:23:45.044Z,2.10
2023-04-03T18:26:16.478Z,1.92
2023-04-03T18:28:50.991Z,2.00
2023-04-03T18:31:18.805Z,2.20
2023-04-03T18:33:46.141Z,2.08
2023-04-03T18:36:13.384Z,2.38
2023-04-03T18:38:40.359Z,1.98
2023-04-03T18:41:09.664Z,2.20
2023-04-03T18:43:36.645Z,2.40
2023-04-03T18:46:05.521Z,2.58
2023-04-03T18:48:36.138Z,2.20
2023-04-03T18:51:03.382Z,2.13
2023-04-03T18:53:30.302Z,2.00
2023-04-03T18:55:57.458Z,2.17
2023-04-03T18:58:24.549Z,2.28
2023-04-03T19:00:51.515Z,2.67
2023-04-03T19:03:18.749Z,2.35
2023-04-03T19:05:46.388Z,1.88
2023-04-03T19:08:14.015Z,2.50
2023-04-03T19:10:40.924Z,2.47
2023-04-03T19:13:07.924Z,2.30
2023-04-03T19:15:34.911Z,1.88
2023-04-03T19:18:01.976Z,2.35
2023-04-03T19:20:29.047Z,2.05
2023-04-03T19:22:56.166Z,2.58
2023-04-03T19:25:23.412Z,2.50
2023-04-03T19:27:50.960Z,2.13
2023-04-03T19:30:17.947Z,2.20
2023-04-03T19:32:44.958Z,2.42
2023-04-03T19:35:12.205Z,2.58
2023-04-03T19:37:39.532Z,2.25
2023-04-03T19:40:07.571Z,2.88
2023-04-03T19:42:36.840Z,2.70
2023-04-03T19:45:04.204Z,2.70
2023-04-03T19:47:31.383Z,2.78
2023-04-03T19:49:58.362Z,2.58
2023-04-03T19:52:28.327Z,2.28
2023-04-03T19:54:55.806Z,2.30
2023-04-03T19:57:22.954Z,3.42
2023-04-03T19:59:49.916Z,3.08
2023-04-03T20:02:18.811Z,2.78
2023-04-03T20:04:46.012Z,2.53
2023-04-03T20:07:13.602Z,2.55
2023-04-03T20:09:41.694Z,2.40
2023-04-03T20:12:10.675Z,2.30
2023-04-03T20:14:39.465Z,1.95
2023-04-03T20:17:06.483Z,2.35
2023-04-03T20:19:33.605Z,2.40
2023-04-03T20:22:01.864Z,2.13
2023-04-03T20:24:29.464Z,2.17
2023-04-03T20:26:58.628Z,2.30
2023-04-03T20:29:26.199Z,2.13
2023-04-03T20:31:54.030Z,2.60
2023-04-03T20:34:21.731Z,2.42
2023-04-03T20:36:50.159Z,2.33
2023-04-03T20:39:19.194Z,2.40
2023-04-03T20:41:46.313Z,2.50
2023-04-03T20:44:13.363Z,2.75
2023-04-03T20:46:52.090Z,2.70
2023-04-03T20:49:20.984Z,2.45
2023-04-03T20:51:48.526Z,2.22
2023-04-03T20:54:16.560Z,3.00
2023-04-03T20:56:44.534Z,2.88
2023-04-03T20:59:14.321Z,2.50
2023-04-03T21:01:42.349Z,2.75
2023-04-03T21:04:19.253Z,2.58
2023-04-03T21:07:23.702Z,2.88
2023-04-03T21:10:29.154Z,2.67
2023-04-03T21:13:33.923Z,2.83
2023-04-03T21:16:00.859Z,2.88
2023-04-03T21:18:52.562Z,2.20
2023-04-03T21:21:26.314Z,3.22
2023-04-03T21:23:54.760Z,3.53
2023-04-03T21:26:22.851Z,3.90
2023-04-03T21:28:53.500Z,4.30
2023-04-03T21:31:22.203Z,4.32
2023-04-03T21:33:50.121Z,4.65
2023-04-03T21:36:17.161Z,4.68
2023-04-03T21:38:46.027Z,4.43
2023-04-03T21:41:13.041Z,4.18
2023-04-03T21:43:40.014Z,4.55
2023-04-03T21:46:07.021Z,3.97
2023-04-03T21:48:36.186Z,4.07
2023-04-03T21:51:06.776Z,3.28
2023-04-03T21:53:34.445Z,3.97
2023-04-03T21:56:02.708Z,3.42
2023-04-03T21:58:32.000Z,3.72
2023-04-03T22:01:17.528Z,3.20
2023-04-03T22:03:45.945Z,3.53
2023-04-03T22:06:15.352Z,3.30
2023-04-03T22:08:43.647Z,3.67
2023-04-03T22:11:15.678Z,3.40
2023-04-03T22:13:43.854Z,3.05
2023-04-03T22:16:12.383Z,3.25
2023-04-03T22:18:39.579Z,2.65
2023-04-03T22:21:08.649Z,3.33
2023-04-03T22:23:36.208Z,3.17
2023-04-03T22:26:08.798Z,3.08
2023-04-03T22:28:38.685Z,2.58
2023-04-03T22:31:13.478Z,2.90
2023-04-03T22:33:42.235Z,2.95
2023-04-03T22:36:10.783Z,3.35
2023-04-03T22:38:38.964Z,2.70
2023-04-03T22:41:07.431Z,3.10
2023-04-03T22:43:36.498Z,2.60
2023-04-03T22:46:08.817Z,2.95
2023-04-03T22:48:37.182Z,2.75
2023-04-03T22:51:07.653Z,2.45
2023-04-03T22:53:35.441Z,2.83
2023-04-03T22:56:04.800Z,2.53
2023-04-03T22:58:32.196Z,3.05
2023-04-03T23:01:10.536Z,2.45
2023-04-03T23:03:39.213Z,2.30
2023-04-03T23:06:07.760Z,2.60
2023-04-03T23:08:38.115Z,2.83
2023-04-03T23:11:07.233Z,2.95
2023-04-03T23:13:34.494Z,2.72
2023-04-03T23:16:02.807Z,3.00
2023-04-03T23:18:31.356Z,2.42
2023-04-03T23:21:03.338Z,2.10
2023-04-03T23:23:30.852Z,2.83
2023-04-03T23:26:00.434Z,2.65
2023-04-03T23:28:28.431Z,2.78
2023-04-03T23:31:00.300Z,2.30
2023-04-03T23:33:27.998Z,2.47
2023-04-03T23:35:54.969Z,2.42
2023-04-03T23:38:22.077Z,2.20
2023-04-03T23:40:49.030Z,2.53
2023-04-03T23:43:16.251Z,2.50
2023-04-03T23:45:44.885Z,2.38
2023-04-03T23:48:12.032Z,2.20
2023-04-03T23:50:39.168Z,2.70
2023-04-03T23:53:06.617Z,2.20
2023-04-03T23:55:33.582Z,2.70
2023-04-03T23:58:00.615Z,2.30
